sensor_id;sensor_type;location;lat;lon;timestamp;temperature;humidity
37974;DHT22;23796;51.458;7.000;2023-02-23T00:00:27;10.30;99.90
37974;DHT22;23796;51.458;7.000;2023-02-23T00:02:58;10.20;99.90
37974;DHT22;23796;51.458;7.000;2023-02-23T00:05:27;10.20;99.90
37974;DHT22;23796;51.458;7.000;2023-02-23T00:07:53;10.20;99.90
37974;DHT22;23796;51.458;7.000;2023-02-23T00:10:22;10.20;99.90
37974;DHT22;23796;51.458;7.000;2023-02-23T00:12:57;10.20;99.90
37974;DHT22;23796;51.458;7.000;2023-02-23T00:15:25;10.20;99.90
37974;DHT22;23796;51.458;7.000;2023-02-23T00:17:55;10.30;99.90
37974;DHT22;23796;51.458;7.000;2023-02-23T00:20:22;10.30;99.90
37974;DHT22;23796;51.458;7.000;2023-02-23T00:22:56;10.40;99.90
37974;DHT22;23796;51.458;7.000;2023-02-23T00:25:23;10.50;99.90
37974;DHT22;23796;51.458;7.000;2023-02-23T00:27:50;10.50;99.90
37974;DHT22;23796;51.458;7.000;2023-02-23T00:30:17;10.50;99.90
37974;DHT22;23796;51.458;7.000;2023-02-23T00:32:45;10.50;99.90
37974;DHT22;23796;51.458;7.000;2023-02-23T00:35:11;10.40;99.90
37974;DHT22;23796;51.458;7.000;2023-02-23T00:37:50;10.30;99.90
37974;DHT22;23796;51.458;7.000;2023-02-23T00:40:17;10.20;99.90
37974;DHT22;23796;51.458;7.000;2023-02-23T00:42:47;10.10;99.90
37974;DHT22;23796;51.458;7.000;2023-02-23T00:45:14;10.00;99.90
37974;DHT22;23796;51.458;7.000;2023-02-23T00:47:42;9.90;99.90
37974;DHT22;23796;51.458;7.000;2023-02-23T00:50:14;9.90;99.90
37974;DHT22;23796;51.458;7.000;2023-02-23T00:52:41;9.90;99.90
37974;DHT22;23796;51.458;7.000;2023-02-23T00:55:09;9.90;99.90
37974;DHT22;23796;51.458;7.000;2023-02-23T00:57:37;9.90;99.90
37974;DHT22;23796;51.458;7.000;2023-02-23T01:00:08;9.90;99.90
37974;DHT22;23796;51.458;7.000;2023-02-23T01:02:46;9.80;99.90
37974;DHT22;23796;51.458;7.000;2023-02-23T01:05:15;9.80;99.90
37974;DHT22;23796;51.458;7.000;2023-02-23T01:07:41;9.80;99.90
37974;DHT22;23796;51.458;7.000;2023-02-23T01:10:12;9.80;99.90
37974;DHT22;23796;51.458;7.000;2023-02-23T01:12:50;9.80;99.90
37974;DHT22;23796;51.458;7.000;2023-02-23T01:15:16;9.80;99.90
37974;DHT22;23796;51.458;7.000;2023-02-23T01:17:43;9.80;99.90
37974;DHT22;23796;51.458;7.000;2023-02-23T01:20:13;9.80;99.90
37974;DHT22;23796;51.458;7.000;2023-02-23T01:22:46;9.80;99.90
37974;DHT22;23796;51.458;7.000;2023-02-23T01:25:16;9.80;99.90
37974;DHT22;23796;51.458;7.000;2023-02-23T01:27:44;9.80;99.90
37974;DHT22;23796;51.458;7.000;2023-02-23T01:30:13;9.90;99.90
37974;DHT22;23796;51.458;7.000;2023-02-23T01:32:42;9.80;99.90
37974;DHT22;23796;51.458;7.000;2023-02-23T01:35:13;9.90;99.90
37974;DHT22;23796;51.458;7.000;2023-02-23T01:37:41;9.80;99.90
37974;DHT22;23796;51.458;7.000;2023-02-23T01:40:16;9.80;99.90
37974;DHT22;23796;51.458;7.000;2023-02-23T01:43:13;9.80;99.90
37974;DHT22;23796;51.458;7.000;2023-02-23T01:45:40;9.80;99.90
37974;DHT22;23796;51.458;7.000;2023-02-23T01:48:12;9.80;99.90
37974;DHT22;23796;51.458;7.000;2023-02-23T01:51:12;9.90;99.90
37974;DHT22;23796;51.458;7.000;2023-02-23T01:53:35;9.90;99.90
37974;DHT22;23796;51.458;7.000;2023-02-23T01:56:14;10.00;99.90
37974;DHT22;23796;51.458;7.000;2023-02-23T01:58:46;10.10;99.90
37974;DHT22;23796;51.458;7.000;2023-02-23T02:01:16;10.20;99.90
37974;DHT22;23796;51.458;7.000;2023-02-23T02:04:03;10.30;99.90
37974;DHT22;23796;51.458;7.000;2023-02-23T02:06:35;10.30;99.90
37974;DHT22;23796;51.458;7.000;2023-02-23T02:09:07;10.40;99.90
37974;DHT22;23796;51.458;7.000;2023-02-23T02:11:35;10.40;99.90
37974;DHT22;23796;51.458;7.000;2023-02-23T02:27:26;10.00;99.90
37974;DHT22;23796;51.458;7.000;2023-02-23T02:30:20;9.90;99.90
37974;DHT22;23796;51.458;7.000;2023-02-23T02:41:15;9.70;99.90
37974;DHT22;23796;51.458;7.000;2023-02-23T02:46:33;9.70;99.90
37974;DHT22;23796;51.458;7.000;2023-02-23T02:52:26;9.80;99.90
37974;DHT22;23796;51.458;7.000;2023-02-23T02:54:50;9.90;99.90
37974;DHT22;23796;51.458;7.000;2023-02-23T02:57:24;9.90;99.90
37974;DHT22;23796;51.458;7.000;2023-02-23T02:59:54;10.00;99.90
37974;DHT22;23796;51.458;7.000;2023-02-23T03:02:39;10.00;99.90
37974;DHT22;23796;51.458;7.000;2023-02-23T03:05:33;10.00;99.90
37974;DHT22;23796;51.458;7.000;2023-02-23T03:08:21;9.90;99.90
37974;DHT22;23796;51.458;7.000;2023-02-23T03:11:10;10.00;99.90
37974;DHT22;23796;51.458;7.000;2023-02-23T03:14:15;9.90;99.90
37974;DHT22;23796;51.458;7.000;2023-02-23T03:17:20;9.80;99.90
37974;DHT22;23796;51.458;7.000;2023-02-23T03:20:28;9.70;99.90
37974;DHT22;23796;51.458;7.000;2023-02-23T03:23:20;9.60;99.90
37974;DHT22;23796;51.458;7.000;2023-02-23T03:26:08;9.50;99.90
37974;DHT22;23796;51.458;7.000;2023-02-23T03:31:49;9.50;99.90
37974;DHT22;23796;51.458;7.000;2023-02-23T03:34:55;9.40;99.90
37974;DHT22;23796;51.458;7.000;2023-02-23T03:38:08;9.40;99.90
37974;DHT22;23796;51.458;7.000;2023-02-23T03:40:55;9.40;99.90
37974;DHT22;23796;51.458;7.000;2023-02-23T03:43:57;9.30;99.90
37974;DHT22;23796;51.458;7.000;2023-02-23T03:46:43;9.40;99.90
37974;DHT22;23796;51.458;7.000;2023-02-23T03:49:33;9.40;99.90
37974;DHT22;23796;51.458;7.000;2023-02-23T03:52:36;9.30;99.90
37974;DHT22;23796;51.458;7.000;2023-02-23T03:55:26;9.30;99.90
37974;DHT22;23796;51.458;7.000;2023-02-23T03:58:17;9.30;99.90
37974;DHT22;23796;51.458;7.000;2023-02-23T04:01:04;9.30;99.90
37974;DHT22;23796;51.458;7.000;2023-02-23T04:03:51;9.30;99.90
37974;DHT22;23796;51.458;7.000;2023-02-23T04:06:39;9.30;99.90
37974;DHT22;23796;51.458;7.000;2023-02-23T04:09:25;9.20;99.90
37974;DHT22;23796;51.458;7.000;2023-02-23T04:12:14;9.30;99.90
37974;DHT22;23796;51.458;7.000;2023-02-23T04:15:12;9.20;99.90
37974;DHT22;23796;51.458;7.000;2023-02-23T04:17:40;9.20;99.90
37974;DHT22;23796;51.458;7.000;2023-02-23T04:20:10;9.20;99.90
37974;DHT22;23796;51.458;7.000;2023-02-23T04:22:37;9.20;99.90
37974;DHT22;23796;51.458;7.000;2023-02-23T04:25:03;9.10;99.90
37974;DHT22;23796;51.458;7.000;2023-02-23T04:27:30;9.10;99.90
37974;DHT22;23796;51.458;7.000;2023-02-23T04:29:57;9.10;99.90
37974;DHT22;23796;51.458;7.000;2023-02-23T04:32:24;9.10;99.90
37974;DHT22;23796;51.458;7.000;2023-02-23T04:34:52;9.10;99.90
37974;DHT22;23796;51.458;7.000;2023-02-23T04:37:18;9.10;99.90
37974;DHT22;23796;51.458;7.000;2023-02-23T04:39:46;9.10;99.90
37974;DHT22;23796;51.458;7.000;2023-02-23T04:42:16;9.10;99.90
37974;DHT22;23796;51.458;7.000;2023-02-23T04:44:42;9.10;99.90
37974;DHT22;23796;51.458;7.000;2023-02-23T04:47:07;9.10;99.90
37974;DHT22;23796;51.458;7.000;2023-02-23T04:49:36;9.20;99.90
37974;DHT22;23796;51.458;7.000;2023-02-23T04:52:01;9.10;99.90
37974;DHT22;23796;51.458;7.000;2023-02-23T04:54:27;9.10;99.90
37974;DHT22;23796;51.458;7.000;2023-02-23T04:56:55;9.10;99.90
37974;DHT22;23796;51.458;7.000;2023-02-23T04:59:21;9.10;99.90
37974;DHT22;23796;51.458;7.000;2023-02-23T05:01:47;9.00;99.90
37974;DHT22;23796;51.458;7.000;2023-02-23T05:04:17;9.10;99.90
37974;DHT22;23796;51.458;7.000;2023-02-23T05:06:43;9.10;99.90
37974;DHT22;23796;51.458;7.000;2023-02-23T05:09:11;9.10;99.90
37974;DHT22;23796;51.458;7.000;2023-02-23T05:11:36;9.10;99.90
37974;DHT22;23796;51.458;7.000;2023-02-23T05:14:02;9.10;99.90
37974;DHT22;23796;51.458;7.000;2023-02-23T05:16:31;9.10;99.90
37974;DHT22;23796;51.458;7.000;2023-02-23T05:19:01;9.10;99.90
37974;DHT22;23796;51.458;7.000;2023-02-23T05:21:27;9.10;99.90
37974;DHT22;23796;51.458;7.000;2023-02-23T05:23:54;9.10;99.90
37974;DHT22;23796;51.458;7.000;2023-02-23T05:26:22;9.10;99.90
37974;DHT22;23796;51.458;7.000;2023-02-23T05:28:50;9.10;99.90
37974;DHT22;23796;51.458;7.000;2023-02-23T05:31:16;9.10;99.90
37974;DHT22;23796;51.458;7.000;2023-02-23T05:33:42;9.10;99.90
37974;DHT22;23796;51.458;7.000;2023-02-23T05:36:16;9.10;99.90
37974;DHT22;23796;51.458;7.000;2023-02-23T05:38:43;9.10;99.90
37974;DHT22;23796;51.458;7.000;2023-02-23T05:41:16;9.10;99.90
37974;DHT22;23796;51.458;7.000;2023-02-23T05:43:47;9.10;99.90
37974;DHT22;23796;51.458;7.000;2023-02-23T05:46:18;9.10;99.90
37974;DHT22;23796;51.458;7.000;2023-02-23T05:48:44;9.20;99.90
37974;DHT22;23796;51.458;7.000;2023-02-23T05:51:12;9.10;99.90
37974;DHT22;23796;51.458;7.000;2023-02-23T05:53:39;9.20;99.90
37974;DHT22;23796;51.458;7.000;2023-02-23T05:56:06;9.20;99.90
37974;DHT22;23796;51.458;7.000;2023-02-23T05:58:34;9.20;99.90
37974;DHT22;23796;51.458;7.000;2023-02-23T06:01:00;9.20;99.90
37974;DHT22;23796;51.458;7.000;2023-02-23T06:03:28;9.20;99.90
37974;DHT22;23796;51.458;7.000;2023-02-23T06:05:56;9.20;99.90
37974;DHT22;23796;51.458;7.000;2023-02-23T06:08:25;9.20;99.90
37974;DHT22;23796;51.458;7.000;2023-02-23T06:10:51;9.20;99.90
37974;DHT22;23796;51.458;7.000;2023-02-23T06:13:18;9.20;99.90
37974;DHT22;23796;51.458;7.000;2023-02-23T06:15:47;9.20;99.90
37974;DHT22;23796;51.458;7.000;2023-02-23T06:18:16;9.20;99.90
37974;DHT22;23796;51.458;7.000;2023-02-23T06:20:42;9.20;99.90
37974;DHT22;23796;51.458;7.000;2023-02-23T06:23:08;9.20;99.90
37974;DHT22;23796;51.458;7.000;2023-02-23T06:25:34;9.20;99.90
37974;DHT22;23796;51.458;7.000;2023-02-23T06:27:59;9.20;99.90
37974;DHT22;23796;51.458;7.000;2023-02-23T06:30:29;9.20;99.90
37974;DHT22;23796;51.458;7.000;2023-02-23T06:32:57;9.20;99.90
37974;DHT22;23796;51.458;7.000;2023-02-23T06:35:25;9.20;99.90
37974;DHT22;23796;51.458;7.000;2023-02-23T06:37:55;9.20;99.90
37974;DHT22;23796;51.458;7.000;2023-02-23T06:40:24;9.20;99.90
37974;DHT22;23796;51.458;7.000;2023-02-23T06:42:49;9.20;99.90
37974;DHT22;23796;51.458;7.000;2023-02-23T06:45:15;9.20;99.90
37974;DHT22;23796;51.458;7.000;2023-02-23T06:47:44;9.20;99.90
37974;DHT22;23796;51.458;7.000;2023-02-23T06:50:10;9.20;99.90
37974;DHT22;23796;51.458;7.000;2023-02-23T06:52:38;9.10;99.90
37974;DHT22;23796;51.458;7.000;2023-02-23T06:55:04;9.10;99.90
37974;DHT22;23796;51.458;7.000;2023-02-23T06:57:31;9.10;99.90
37974;DHT22;23796;51.458;7.000;2023-02-23T06:59:56;9.00;99.90
37974;DHT22;23796;51.458;7.000;2023-02-23T07:02:25;9.00;99.90
37974;DHT22;23796;51.458;7.000;2023-02-23T07:04:50;9.00;99.90
37974;DHT22;23796;51.458;7.000;2023-02-23T07:07:18;9.00;99.90
37974;DHT22;23796;51.458;7.000;2023-02-23T07:09:46;9.00;99.90
37974;DHT22;23796;51.458;7.000;2023-02-23T07:12:17;9.00;99.90
37974;DHT22;23796;51.458;7.000;2023-02-23T07:14:45;9.00;99.90
37974;DHT22;23796;51.458;7.000;2023-02-23T07:17:13;9.00;99.90
37974;DHT22;23796;51.458;7.000;2023-02-23T07:19:42;9.00;99.90
37974;DHT22;23796;51.458;7.000;2023-02-23T07:22:07;9.00;99.90
37974;DHT22;23796;51.458;7.000;2023-02-23T07:24:33;9.00;99.90
37974;DHT22;23796;51.458;7.000;2023-02-23T07:26:59;9.00;99.90
37974;DHT22;23796;51.458;7.000;2023-02-23T07:29:24;9.00;99.90
37974;DHT22;23796;51.458;7.000;2023-02-23T07:31:55;9.00;99.90
37974;DHT22;23796;51.458;7.000;2023-02-23T07:34:23;9.00;99.90
37974;DHT22;23796;51.458;7.000;2023-02-23T07:36:48;9.00;99.90
37974;DHT22;23796;51.458;7.000;2023-02-23T07:39:16;9.00;99.90
37974;DHT22;23796;51.458;7.000;2023-02-23T07:41:42;9.00;99.90
37974;DHT22;23796;51.458;7.000;2023-02-23T07:44:08;9.10;99.90
37974;DHT22;23796;51.458;7.000;2023-02-23T07:46:33;9.10;99.90
37974;DHT22;23796;51.458;7.000;2023-02-23T07:48:59;9.00;99.90
37974;DHT22;23796;51.458;7.000;2023-02-23T07:51:25;9.00;99.90
37974;DHT22;23796;51.458;7.000;2023-02-23T07:53:50;8.90;99.90
37974;DHT22;23796;51.458;7.000;2023-02-23T07:56:16;8.90;99.90
37974;DHT22;23796;51.458;7.000;2023-02-23T07:58:43;8.80;99.90
37974;DHT22;23796;51.458;7.000;2023-02-23T08:01:09;8.80;99.90
37974;DHT22;23796;51.458;7.000;2023-02-23T08:03:37;8.70;99.90
37974;DHT22;23796;51.458;7.000;2023-02-23T08:06:04;8.70;99.90
37974;DHT22;23796;51.458;7.000;2023-02-23T08:08:31;8.80;99.90
37974;DHT22;23796;51.458;7.000;2023-02-23T08:11:01;8.70;99.90
37974;DHT22;23796;51.458;7.000;2023-02-23T08:13:27;8.70;99.90
37974;DHT22;23796;51.458;7.000;2023-02-23T08:15:56;8.70;99.90
37974;DHT22;23796;51.458;7.000;2023-02-23T08:18:22;8.70;99.90
37974;DHT22;23796;51.458;7.000;2023-02-23T08:20:48;8.60;99.90
37974;DHT22;23796;51.458;7.000;2023-02-23T08:23:16;8.70;99.90
37974;DHT22;23796;51.458;7.000;2023-02-23T08:25:42;8.70;99.90
37974;DHT22;23796;51.458;7.000;2023-02-23T08:28:11;8.70;99.90
37974;DHT22;23796;51.458;7.000;2023-02-23T08:30:36;8.80;99.90
37974;DHT22;23796;51.458;7.000;2023-02-23T08:33:05;8.70;99.90
37974;DHT22;23796;51.458;7.000;2023-02-23T08:35:30;8.80;99.90
37974;DHT22;23796;51.458;7.000;2023-02-23T08:37:56;8.70;99.90
37974;DHT22;23796;51.458;7.000;2023-02-23T08:40:22;8.80;99.90
37974;DHT22;23796;51.458;7.000;2023-02-23T08:42:50;8.80;99.90
37974;DHT22;23796;51.458;7.000;2023-02-23T08:45:18;8.70;99.90
37974;DHT22;23796;51.458;7.000;2023-02-23T08:47:47;8.70;99.90
37974;DHT22;23796;51.458;7.000;2023-02-23T08:50:13;8.70;99.90
37974;DHT22;23796;51.458;7.000;2023-02-23T08:52:39;8.70;99.90
37974;DHT22;23796;51.458;7.000;2023-02-23T08:55:07;8.80;99.90
37974;DHT22;23796;51.458;7.000;2023-02-23T08:57:36;8.80;99.90
37974;DHT22;23796;51.458;7.000;2023-02-23T09:00:03;8.90;99.90
37974;DHT22;23796;51.458;7.000;2023-02-23T09:02:39;9.00;99.90
37974;DHT22;23796;51.458;7.000;2023-02-23T09:05:06;9.00;99.90
37974;DHT22;23796;51.458;7.000;2023-02-23T09:07:32;9.10;99.90
37974;DHT22;23796;51.458;7.000;2023-02-23T09:09:58;9.20;99.90
37974;DHT22;23796;51.458;7.000;2023-02-23T09:12:26;9.30;99.90
37974;DHT22;23796;51.458;7.000;2023-02-23T09:14:52;9.30;99.90
37974;DHT22;23796;51.458;7.000;2023-02-23T09:17:19;9.40;99.90
37974;DHT22;23796;51.458;7.000;2023-02-23T09:19:44;9.40;99.90
37974;DHT22;23796;51.458;7.000;2023-02-23T09:22:10;9.30;99.90
37974;DHT22;23796;51.458;7.000;2023-02-23T09:24:36;9.30;99.90
37974;DHT22;23796;51.458;7.000;2023-02-23T09:27:03;9.40;99.90
37974;DHT22;23796;51.458;7.000;2023-02-23T09:29:32;9.40;99.90
37974;DHT22;23796;51.458;7.000;2023-02-23T09:31:58;9.50;99.90
37974;DHT22;23796;51.458;7.000;2023-02-23T09:34:24;9.50;99.90
37974;DHT22;23796;51.458;7.000;2023-02-23T09:36:50;9.30;99.90
37974;DHT22;23796;51.458;7.000;2023-02-23T09:39:19;9.30;99.90
37974;DHT22;23796;51.458;7.000;2023-02-23T09:42:06;9.30;99.90
37974;DHT22;23796;51.458;7.000;2023-02-23T09:49:52;9.20;99.90
37974;DHT22;23796;51.458;7.000;2023-02-23T09:52:54;9.20;99.90
37974;DHT22;23796;51.458;7.000;2023-02-23T09:55:23;9.20;99.90
37974;DHT22;23796;51.458;7.000;2023-02-23T09:57:53;9.20;99.90
37974;DHT22;23796;51.458;7.000;2023-02-23T10:00:25;9.10;99.90
37974;DHT22;23796;51.458;7.000;2023-02-23T10:02:57;9.20;99.90
37974;DHT22;23796;51.458;7.000;2023-02-23T10:05:28;9.30;99.90
37974;DHT22;23796;51.458;7.000;2023-02-23T10:08:02;9.30;99.90
37974;DHT22;23796;51.458;7.000;2023-02-23T10:10:50;9.30;99.90
37974;DHT22;23796;51.458;7.000;2023-02-23T10:23:59;9.30;99.90
37974;DHT22;23796;51.458;7.000;2023-02-23T10:26:37;9.30;99.90
37974;DHT22;23796;51.458;7.000;2023-02-23T10:29:14;9.10;99.90
37974;DHT22;23796;51.458;7.000;2023-02-23T10:31:46;9.10;99.90
37974;DHT22;23796;51.458;7.000;2023-02-23T10:34:15;9.10;99.90
37974;DHT22;23796;51.458;7.000;2023-02-23T10:39:13;9.10;99.90
37974;DHT22;23796;51.458;7.000;2023-02-23T10:41:40;9.10;99.90
37974;DHT22;23796;51.458;7.000;2023-02-23T10:44:14;9.10;99.90
37974;DHT22;23796;51.458;7.000;2023-02-23T10:46:43;9.20;99.90
37974;DHT22;23796;51.458;7.000;2023-02-23T10:49:19;9.10;99.90
37974;DHT22;23796;51.458;7.000;2023-02-23T10:51:47;9.10;99.90
37974;DHT22;23796;51.458;7.000;2023-02-23T10:57:18;9.00;99.90
37974;DHT22;23796;51.458;7.000;2023-02-23T11:00:06;9.00;99.90
37974;DHT22;23796;51.458;7.000;2023-02-23T11:02:32;9.10;99.90
37974;DHT22;23796;51.458;7.000;2023-02-23T11:05:01;9.00;99.90
37974;DHT22;23796;51.458;7.000;2023-02-23T11:07:29;9.00;99.90
37974;DHT22;23796;51.458;7.000;2023-02-23T11:10:11;9.00;99.90
37974;DHT22;23796;51.458;7.000;2023-02-23T11:12:43;9.00;99.90
37974;DHT22;23796;51.458;7.000;2023-02-23T11:18:00;9.10;99.90
37974;DHT22;23796;51.458;7.000;2023-02-23T11:20:35;9.10;99.90
37974;DHT22;23796;51.458;7.000;2023-02-23T11:25:35;9.20;99.90
37974;DHT22;23796;51.458;7.000;2023-02-23T11:28:02;9.20;99.90
37974;DHT22;23796;51.458;7.000;2023-02-23T11:30:34;9.10;99.90
37974;DHT22;23796;51.458;7.000;2023-02-23T11:33:02;9.10;99.90
37974;DHT22;23796;51.458;7.000;2023-02-23T11:35:35;9.10;99.90
37974;DHT22;23796;51.458;7.000;2023-02-23T11:41:02;9.00;99.90
37974;DHT22;23796;51.458;7.000;2023-02-23T11:43:28;8.90;99.90
37974;DHT22;23796;51.458;7.000;2023-02-23T11:45:58;8.90;99.90
37974;DHT22;23796;51.458;7.000;2023-02-23T11:50:55;8.70;99.90
37974;DHT22;23796;51.458;7.000;2023-02-23T11:53:40;8.70;99.90
37974;DHT22;23796;51.458;7.000;2023-02-23T11:56:10;8.70;99.90
37974;DHT22;23796;51.458;7.000;2023-02-23T11:58:53;8.70;99.90
37974;DHT22;23796;51.458;7.000;2023-02-23T12:04:08;8.80;99.90
37974;DHT22;23796;51.458;7.000;2023-02-23T12:06:38;8.80;99.90
37974;DHT22;23796;51.458;7.000;2023-02-23T12:11:42;8.90;99.90
37974;DHT22;23796;51.458;7.000;2023-02-23T12:14:33;9.00;99.90
37974;DHT22;23796;51.458;7.000;2023-02-23T12:17:25;9.10;99.90
37974;DHT22;23796;51.458;7.000;2023-02-23T12:19:57;9.10;99.90
37974;DHT22;23796;51.458;7.000;2023-02-23T12:22:28;9.20;99.90
37974;DHT22;23796;51.458;7.000;2023-02-23T12:30:34;9.20;99.90
37974;DHT22;23796;51.458;7.000;2023-02-23T12:33:27;9.20;99.90
37974;DHT22;23796;51.458;7.000;2023-02-23T12:39:15;9.10;99.90
37974;DHT22;23796;51.458;7.000;2023-02-23T12:45:01;9.10;99.90
37974;DHT22;23796;51.458;7.000;2023-02-23T12:52:56;9.00;99.90
37974;DHT22;23796;51.458;7.000;2023-02-23T12:58:17;9.00;99.90
37974;DHT22;23796;51.458;7.000;2023-02-23T13:06:56;9.00;99.90
37974;DHT22;23796;51.458;7.000;2023-02-23T13:10:15;9.00;99.90
37974;DHT22;23796;51.458;7.000;2023-02-23T13:15:54;9.10;99.90
37974;DHT22;23796;51.458;7.000;2023-02-23T13:24:23;9.00;99.90
37974;DHT22;23796;51.458;7.000;2023-02-23T13:27:17;9.00;99.90
37974;DHT22;23796;51.458;7.000;2023-02-23T13:29:50;9.10;99.90
37974;DHT22;23796;51.458;7.000;2023-02-23T13:32:28;9.10;99.90
37974;DHT22;23796;51.458;7.000;2023-02-23T13:34:56;9.10;99.90
37974;DHT22;23796;51.458;7.000;2023-02-23T13:37:50;9.10;99.90
37974;DHT22;23796;51.458;7.000;2023-02-23T13:40:35;9.00;99.90
37974;DHT22;23796;51.458;7.000;2023-02-23T13:43:17;9.10;99.90
37974;DHT22;23796;51.458;7.000;2023-02-23T13:48:56;9.10;99.90
37974;DHT22;23796;51.458;7.000;2023-02-23T13:56:53;9.00;99.90
37974;DHT22;23796;51.458;7.000;2023-02-23T13:59:20;9.10;99.90
37974;DHT22;23796;51.458;7.000;2023-02-23T14:01:50;9.10;99.90
37974;DHT22;23796;51.458;7.000;2023-02-23T14:04:27;9.10;99.90
37974;DHT22;23796;51.458;7.000;2023-02-23T14:12:31;9.30;99.90
37974;DHT22;23796;51.458;7.000;2023-02-23T14:18:03;9.40;99.90
37974;DHT22;23796;51.458;7.000;2023-02-23T14:31:36;9.30;99.90
37974;DHT22;23796;51.458;7.000;2023-02-23T14:34:11;9.20;99.90
37974;DHT22;23796;51.458;7.000;2023-02-23T14:36:41;9.20;99.90
37974;DHT22;23796;51.458;7.000;2023-02-23T14:39:15;9.10;99.90
37974;DHT22;23796;51.458;7.000;2023-02-23T14:41:55;9.10;99.90
37974;DHT22;23796;51.458;7.000;2023-02-23T14:44:33;9.00;99.90
37974;DHT22;23796;51.458;7.000;2023-02-23T14:47:19;8.90;99.90
37974;DHT22;23796;51.458;7.000;2023-02-23T14:49:55;8.90;99.90
37974;DHT22;23796;51.458;7.000;2023-02-23T14:52:25;9.00;99.90
37974;DHT22;23796;51.458;7.000;2023-02-23T14:57:35;9.00;99.90
37974;DHT22;23796;51.458;7.000;2023-02-23T15:05:30;9.00;99.90
37974;DHT22;23796;51.458;7.000;2023-02-23T15:08:19;9.00;99.90
37974;DHT22;23796;51.458;7.000;2023-02-23T15:10:48;9.10;99.90
37974;DHT22;23796;51.458;7.000;2023-02-23T15:13:33;9.20;99.90
37974;DHT22;23796;51.458;7.000;2023-02-23T15:16:06;9.20;99.90
37974;DHT22;23796;51.458;7.000;2023-02-23T15:18:37;9.20;99.90
37974;DHT22;23796;51.458;7.000;2023-02-23T15:21:09;9.20;99.90
37974;DHT22;23796;51.458;7.000;2023-02-23T15:23:36;9.20;99.90
37974;DHT22;23796;51.458;7.000;2023-02-23T15:26:33;9.30;99.90
37974;DHT22;23796;51.458;7.000;2023-02-23T15:29:18;9.40;99.90
37974;DHT22;23796;51.458;7.000;2023-02-23T15:31:50;9.50;99.90
37974;DHT22;23796;51.458;7.000;2023-02-23T15:34:21;9.50;99.90
37974;DHT22;23796;51.458;7.000;2023-02-23T15:37:06;9.50;99.90
37974;DHT22;23796;51.458;7.000;2023-02-23T15:42:10;9.50;99.90
37974;DHT22;23796;51.458;7.000;2023-02-23T15:44:38;9.40;99.90
37974;DHT22;23796;51.458;7.000;2023-02-23T15:47:08;9.40;99.90
37974;DHT22;23796;51.458;7.000;2023-02-23T15:49:41;9.40;99.90
37974;DHT22;23796;51.458;7.000;2023-02-23T15:52:12;9.40;99.90
37974;DHT22;23796;51.458;7.000;2023-02-23T15:54:49;9.40;99.90
37974;DHT22;23796;51.458;7.000;2023-02-23T15:57:21;9.40;99.90
37974;DHT22;23796;51.458;7.000;2023-02-23T15:59:51;9.40;99.90
37974;DHT22;23796;51.458;7.000;2023-02-23T16:02:19;9.40;99.90
37974;DHT22;23796;51.458;7.000;2023-02-23T16:04:50;9.30;99.90
37974;DHT22;23796;51.458;7.000;2023-02-23T16:07:25;9.30;99.90
37974;DHT22;23796;51.458;7.000;2023-02-23T16:12:28;9.30;99.90
37974;DHT22;23796;51.458;7.000;2023-02-23T16:15:03;9.30;99.90
37974;DHT22;23796;51.458;7.000;2023-02-23T16:17:42;9.40;99.90
37974;DHT22;23796;51.458;7.000;2023-02-23T16:20:39;9.30;99.90
37974;DHT22;23796;51.458;7.000;2023-02-23T16:23:23;9.20;99.90
37974;DHT22;23796;51.458;7.000;2023-02-23T16:25:55;9.10;99.90
37974;DHT22;23796;51.458;7.000;2023-02-23T16:28:30;9.10;99.90
37974;DHT22;23796;51.458;7.000;2023-02-23T16:31:01;9.00;99.90
37974;DHT22;23796;51.458;7.000;2023-02-23T16:33:29;8.90;99.90
37974;DHT22;23796;51.458;7.000;2023-02-23T16:41:30;8.50;99.90
37974;DHT22;23796;51.458;7.000;2023-02-23T16:44:01;8.40;99.90
37974;DHT22;23796;51.458;7.000;2023-02-23T16:46:38;8.40;99.90
37974;DHT22;23796;51.458;7.000;2023-02-23T16:49:18;8.40;99.90
37974;DHT22;23796;51.458;7.000;2023-02-23T16:51:50;8.40;99.90
37974;DHT22;23796;51.458;7.000;2023-02-23T16:54:16;8.40;99.90
37974;DHT22;23796;51.458;7.000;2023-02-23T16:56:41;8.40;99.90
37974;DHT22;23796;51.458;7.000;2023-02-23T16:59:14;8.40;99.90
37974;DHT22;23796;51.458;7.000;2023-02-23T17:01:42;8.40;99.90
37974;DHT22;23796;51.458;7.000;2023-02-23T17:04:12;8.40;99.90
37974;DHT22;23796;51.458;7.000;2023-02-23T17:06:40;8.40;99.90
37974;DHT22;23796;51.458;7.000;2023-02-23T17:09:08;8.40;99.90
37974;DHT22;23796;51.458;7.000;2023-02-23T17:11:36;8.40;99.90
37974;DHT22;23796;51.458;7.000;2023-02-23T17:14:02;8.40;99.90
37974;DHT22;23796;51.458;7.000;2023-02-23T17:16:27;8.40;99.90
37974;DHT22;23796;51.458;7.000;2023-02-23T17:18:55;8.30;99.90
37974;DHT22;23796;51.458;7.000;2023-02-23T17:21:23;8.30;99.90
37974;DHT22;23796;51.458;7.000;2023-02-23T17:23:51;8.30;99.90
37974;DHT22;23796;51.458;7.000;2023-02-23T17:26:26;8.30;99.90
37974;DHT22;23796;51.458;7.000;2023-02-23T17:28:52;8.30;99.90
37974;DHT22;23796;51.458;7.000;2023-02-23T17:31:22;8.40;99.90
37974;DHT22;23796;51.458;7.000;2023-02-23T17:33:48;8.40;99.90
37974;DHT22;23796;51.458;7.000;2023-02-23T17:36:16;8.40;99.90
37974;DHT22;23796;51.458;7.000;2023-02-23T17:38:44;8.40;99.90
37974;DHT22;23796;51.458;7.000;2023-02-23T17:41:15;8.40;99.90
37974;DHT22;23796;51.458;7.000;2023-02-23T17:46:19;8.40;99.90
37974;DHT22;23796;51.458;7.000;2023-02-23T17:48:47;8.30;99.90
37974;DHT22;23796;51.458;7.000;2023-02-23T17:51:14;8.40;99.90
37974;DHT22;23796;51.458;7.000;2023-02-23T17:53:42;8.40;99.90
37974;DHT22;23796;51.458;7.000;2023-02-23T17:56:08;8.40;99.90
37974;DHT22;23796;51.458;7.000;2023-02-23T17:58:35;8.40;99.90
37974;DHT22;23796;51.458;7.000;2023-02-23T18:01:03;8.40;99.90
37974;DHT22;23796;51.458;7.000;2023-02-23T18:03:33;8.40;99.90
37974;DHT22;23796;51.458;7.000;2023-02-23T18:06:04;8.40;99.90
37974;DHT22;23796;51.458;7.000;2023-02-23T18:08:31;8.40;99.90
37974;DHT22;23796;51.458;7.000;2023-02-23T18:10:57;8.40;99.90
37974;DHT22;23796;51.458;7.000;2023-02-23T18:13:27;8.40;99.90
37974;DHT22;23796;51.458;7.000;2023-02-23T18:16:04;8.30;99.90
37974;DHT22;23796;51.458;7.000;2023-02-23T18:18:32;8.30;99.90
37974;DHT22;23796;51.458;7.000;2023-02-23T18:20:59;8.30;99.90
37974;DHT22;23796;51.458;7.000;2023-02-23T18:23:29;8.30;99.90
37974;DHT22;23796;51.458;7.000;2023-02-23T18:26:06;8.30;99.90
37974;DHT22;23796;51.458;7.000;2023-02-23T18:28:32;8.40;99.90
37974;DHT22;23796;51.458;7.000;2023-02-23T18:30:59;8.30;99.90
37974;DHT22;23796;51.458;7.000;2023-02-23T18:33:30;8.40;99.90
37974;DHT22;23796;51.458;7.000;2023-02-23T18:35:56;8.40;99.90
37974;DHT22;23796;51.458;7.000;2023-02-23T18:38:22;8.30;99.90
37974;DHT22;23796;51.458;7.000;2023-02-23T18:40:48;8.40;99.90
37974;DHT22;23796;51.458;7.000;2023-02-23T18:43:13;8.40;99.90
37974;DHT22;23796;51.458;7.000;2023-02-23T18:45:39;8.40;99.90
37974;DHT22;23796;51.458;7.000;2023-02-23T18:48:05;8.40;99.90